Map

Track Data

SID SEASON NUMBER BASIN SUBBASIN NAME ISO_TIME NATURE LAT LON WMO_WIND WMO_PRES WMO_AGENCY TRACK_TYPE DIST2LAND LANDFALL IFLAG USA_AGENCY USA_ATCF_ID USA_LAT USA_LON USA_RECORD USA_STATUS USA_WIND USA_PRES USA_SSHS USA_R34_NE USA_R34_SE USA_R34_SW USA_R34_NW USA_R50_NE USA_R50_SE USA_R50_SW USA_R50_NW USA_R64_NE USA_R64_SE USA_R64_SW USA_R64_NW USA_POCI USA_ROCI USA_RMW USA_EYE TOKYO_LAT TOKYO_LON TOKYO_GRADE TOKYO_WIND TOKYO_PRES TOKYO_R50_DIR TOKYO_R50_LONG TOKYO_R50_SHORT TOKYO_R30_DIR TOKYO_R30_LONG TOKYO_R30_SHORT TOKYO_LAND CMA_LAT CMA_LON CMA_CAT CMA_WIND CMA_PRES HKO_LAT HKO_LON HKO_CAT HKO_WIND HKO_PRES NEWDELHI_LAT NEWDELHI_LON NEWDELHI_GRADE NEWDELHI_WIND NEWDELHI_PRES NEWDELHI_CI NEWDELHI_DP NEWDELHI_POCI REUNION_LAT REUNION_LON REUNION_TYPE REUNION_WIND REUNION_PRES REUNION_TNUM REUNION_CI REUNION_RMW REUNION_R34_NE REUNION_R34_SE REUNION_R34_SW REUNION_R34_NW REUNION_R50_NE REUNION_R50_SE REUNION_R50_SW REUNION_R50_NW REUNION_R64_NE REUNION_R64_SE REUNION_R64_SW REUNION_R64_NW BOM_LAT BOM_LON BOM_TYPE BOM_WIND BOM_PRES BOM_TNUM BOM_CI BOM_RMW BOM_R34_NE BOM_R34_SE BOM_R34_SW BOM_R34_NW BOM_R50_NE BOM_R50_SE BOM_R50_SW BOM_R50_NW BOM_R64_NE BOM_R64_SE BOM_R64_SW BOM_R64_NW BOM_ROCI BOM_POCI BOM_EYE BOM_POS_METHOD BOM_PRES_METHOD NADI_LAT NADI_LON NADI_CAT NADI_WIND NADI_PRES WELLINGTON_LAT WELLINGTON_LON WELLINGTON_WIND WELLINGTON_PRES DS824_LAT DS824_LON DS824_STAGE DS824_WIND DS824_PRES TD9636_LAT TD9636_LON TD9636_STAGE TD9636_WIND TD9636_PRES TD9635_LAT TD9635_LON TD9635_WIND TD9635_PRES TD9635_ROCI NEUMANN_LAT NEUMANN_LON NEUMANN_CLASS NEUMANN_WIND NEUMANN_PRES MLC_LAT MLC_LON MLC_CLASS MLC_WIND MLC_PRES USA_GUST BOM_GUST BOM_GUST_PER REUNION_GUST REUNION_GUST_PER USA_SEAHGT USA_SEARAD_NE USA_SEARAD_SE USA_SEARAD_SW USA_SEARAD_NW STORM_SPEED STORM_DIR
1982210N11245 1982 53 EP MM HECTOR 1982-07-29 00:00:00 TS 11.3000 -114.800 30 hurdat_epa main 1385 1385 O_________O___ hurdat_epa EP081982 11.3000 -114.800 TD 30 -1 11.3000 -114.800 1 30 12 270
1982210N11245 1982 53 EP MM HECTOR 1982-07-29 03:00:00 TS 11.2960 -115.398 main 1418 1418 P_________P___ EP081982 11.3027 -115.400 TD 30 -1 11.2758 -115.394 1 31 12 270
1982210N11245 1982 53 EP MM HECTOR 1982-07-29 06:00:00 TS 11.2902 -115.998 30 hurdat_epa main 1445 1445 O_________P___ hurdat_epa EP081982 11.3000 -116.000 TD 30 -1 11.2608 -115.990 1 32 12 269
1982210N11245 1982 53 EP MM HECTOR 1982-07-29 09:00:00 TS 11.2856 -116.598 main 1474 1474 P_________P___ EP081982 11.2924 -116.600 TD 32 -1 11.2654 -116.591 1 33 12 270
1982210N11245 1982 53 EP MM HECTOR 1982-07-29 12:00:00 TS 11.3000 -117.200 35 hurdat_epa main 1505 1505 O_________O___ hurdat_epa EP081982 11.3000 -117.200 TS 35 0 11.3000 -117.200 2 35 12 272
1982210N11245 1982 53 EP MM HECTOR 1982-07-29 15:00:00 TS 11.3331 -117.804 main 1539 1539 P_________P___ EP081982 11.3199 -117.800 TS 40 0 11.3727 -117.816 2 37 12 276
1982210N11245 1982 53 EP MM HECTOR 1982-07-29 18:00:00 TS 11.4206 -118.408 45 hurdat_epa main 1565 1561 O_________P___ hurdat_epa EP081982 11.4000 -118.400 TS 45 0 11.4824 -118.430 2 40 12 282
1982210N11245 1982 53 EP MM HECTOR 1982-07-29 21:00:00 TS 11.5952 -119.030 main 1583 1583 P_________P___ EP081982 11.5850 -119.030 TS 45 0 11.6258 -119.029 2 42 12 288
1982210N11245 1982 53 EP MM HECTOR 1982-07-30 00:00:00 TS 11.8000 -119.600 45 hurdat_epa main 1605 1605 O_________O___ hurdat_epa EP081982 11.8000 -119.600 TS 45 0 11.8000 -119.600 2 45 10 290
1982210N11245 1982 53 EP MM HECTOR 1982-07-30 03:00:00 TS 11.9489 -120.032 main 1623 1622 P_________P___ EP081982 11.9346 -120.000 TS 47 0 11.9917 -120.127 2 47 9 291
1982210N11245 1982 53 EP MM HECTOR 1982-07-30 06:00:00 TS 12.1280 -120.457 50 hurdat_epa main 1641 1633 O_________P___ hurdat_epa EP081982 12.1000 -120.400 TS 50 0 12.2119 -120.627 2 50 11 295
1982210N11245 1982 53 EP MM HECTOR 1982-07-30 09:00:00 TS 12.4016 -121.017 main 1653 1652 P_________P___ EP081982 12.3851 -120.985 TS 52 0 12.4512 -121.114 2 52 13 297
1982210N11245 1982 53 EP MM HECTOR 1982-07-30 12:00:00 TS 12.7000 -121.600 55 hurdat_epa main 1672 1669 O_________O___ hurdat_epa EP081982 12.7000 -121.600 TS 55 0 12.7000 -121.600 2 55 12 296
1982210N11245 1982 53 EP MM HECTOR 1982-07-30 15:00:00 TS 12.9320 -122.134 main 1686 1684 P_________P___ EP081982 12.9349 -122.138 TS 60 0 12.9231 -122.125 2 60 11 297
1982210N11245 1982 53 EP MM HECTOR 1982-07-30 18:00:00 TS 13.2000 -122.600 65 hurdat_epa main 1693 1688 O_________O___ hurdat_epa EP081982 13.2000 -122.600 HU 65 1 13.2000 -122.600 3 65 10 308
1982210N11245 1982 53 EP MM HECTOR 1982-07-30 21:00:00 TS 13.5625 -122.959 main 1687 1675 P_________P___ EP081982 13.5623 -122.958 HU 65 1 13.5631 -122.963 3 65 11 320
1982210N11245 1982 53 EP MM HECTOR 1982-07-31 00:00:00 TS 14.0000 -123.300 65 hurdat_epa main 1675 1665 O_________O___ hurdat_epa EP081982 14.0000 -123.300 HU 65 1 14.0000 -123.300 4 65 12 321
1982210N11245 1982 53 EP MM HECTOR 1982-07-31 03:00:00 TS 14.4771 -123.724 main 1664 1663 P_________P___ EP081982 14.4775 -123.728 HU 65 1 14.4759 -123.713 4 65 13 319
1982210N11245 1982 53 EP MM HECTOR 1982-07-31 06:00:00 TS 14.9997 -124.193 65 hurdat_epa main 1664 1656 O_________P___ hurdat_epa EP081982 15.0000 -124.200 HU 65 1 14.9986 -124.172 4 65 14 319
1982210N11245 1982 53 EP MM HECTOR 1982-07-31 09:00:00 TS 15.5436 -124.687 main 1666 1659 P_________P___ EP081982 15.5424 -124.693 HU 65 1 15.5471 -124.671 4 65 15 319
1982210N11245 1982 53 EP MM HECTOR 1982-07-31 12:00:00 TS 16.1000 -125.200 65 hurdat_epa main 1665 1650 O_________O___ hurdat_epa EP081982 16.1000 -125.200 HU 65 1 16.1000 -125.200 4 65 15 319
1982210N11245 1982 53 EP MM HECTOR 1982-07-31 15:00:00 TS 16.6571 -125.690 main 1648 1641 P_________P___ EP081982 16.6572 -125.678 HU 65 1 16.6569 -125.726 4 62 15 318
1982210N11245 1982 53 EP MM HECTOR 1982-07-31 18:00:00 TS 17.2023 -126.221 65 hurdat_epa main 1641 1638 O_________P___ hurdat_epa EP081982 17.2000 -126.200 HU 65 1 17.2091 -126.283 4 60 15 314
1982210N11245 1982 53 EP MM HECTOR 1982-07-31 21:00:00 TS 17.7304 -126.833 main 1645 1644 P_________P___ EP081982 17.7299 -126.820 HU 60 0 17.7317 -126.873 4 57 16 309
1982210N11245 1982 53 EP MM HECTOR 1982-08-01 00:00:00 TS 18.2000 -127.500 55 hurdat_epa main 1660 1660 O_________O___ hurdat_epa EP081982 18.2000 -127.500 TS 55 0 18.2000 -127.500 2 55 16 304
1982210N11245 1982 53 EP MM HECTOR 1982-08-01 03:00:00 TS 18.5886 -128.188 main 1687 1687 P_________P___ EP081982 18.5798 -128.193 TS 52 0 18.6150 -128.172 2 53 15 298
1982210N11245 1982 53 EP MM HECTOR 1982-08-01 06:00:00 TS 18.9175 -128.894 50 hurdat_epa main 1724 1724 O_________P___ hurdat_epa EP081982 18.9000 -128.900 TS 50 0 18.9700 -128.878 2 52 15 296
1982210N11245 1982 53 EP MM HECTOR 1982-08-01 09:00:00 TS 19.2385 -129.599 main 1763 1757 P_________P___ EP081982 19.2297 -129.600 TS 50 0 19.2649 -129.594 2 51 15 294
1982210N11245 1982 53 EP MM HECTOR 1982-08-01 12:00:00 TS 19.5000 -130.300 50 hurdat_epa main 1805 1805 O_________O___ hurdat_epa EP081982 19.5000 -130.300 TS 50 0 19.5000 -130.300 2 50 14 288
1982210N11245 1982 53 EP MM HECTOR 1982-08-01 15:00:00 TS 19.6814 -131.008 main 1854 1854 P_________P___ EP081982 19.6799 -131.015 TS 42 0 19.6860 -130.986 2 46 13 283
1982210N11245 1982 53 EP MM HECTOR 1982-08-01 18:00:00 TS 19.8042 -131.688 35 hurdat_epa main 1911 1911 O_________P___ hurdat_epa EP081982 19.8000 -131.700 TS 35 0 19.8169 -131.654 2 42 13 280
1982210N11245 1982 53 EP MM HECTOR 1982-08-01 21:00:00 TS 19.9090 -132.316 main 1960 1960 P_________P___ EP081982 19.9072 -132.323 TS 35 0 19.9143 -132.295 2 38 12 280
1982210N11245 1982 53 EP MM HECTOR 1982-08-02 00:00:00 TS 20.0000 -132.900 35 hurdat_epa main 2009 2009 O_________O___ hurdat_epa EP081982 20.0000 -132.900 TS 35 0 20.0000 -132.900 2 35 11 280
1982210N11245 1982 53 EP MM HECTOR 1982-08-02 03:00:00 TS 20.1024 -133.465 main 2044 2044 P_________P___ EP081982 20.0998 -133.465 TS 35 0 20.1103 -133.465 2 33 11 281
1982210N11245 1982 53 EP MM HECTOR 1982-08-02 06:00:00 TS 20.2034 -133.999 35 hurdat_epa main 2066 2066 O_________P___ hurdat_epa EP081982 20.2000 -134.000 TS 35 0 20.2138 -133.995 2 32 10 282
1982210N11245 1982 53 EP MM HECTOR 1982-08-02 09:00:00 TS 20.3024 -134.501 main 2089 2070 P_________P___ EP081982 20.2997 -134.500 TS 32 -1 20.3104 -134.503 2 31 10 282
1982210N11245 1982 53 EP MM HECTOR 1982-08-02 12:00:00 TS 20.4000 -135.000 30 hurdat_epa main 2070 2018 O_________O___ hurdat_epa EP081982 20.4000 -135.000 TD 30 -1 20.4000 -135.000 1 30 10 282
1982210N11245 1982 53 EP MM HECTOR 1982-08-02 15:00:00 TS 20.4993 -135.528 main 2018 1966 P_________P___ EP081982 20.5075 -135.557 TD 27 -1 20.4747 -135.441 1 28 10 281
1982210N11245 1982 53 EP MM HECTOR 1982-08-02 18:00:00 TS 20.5861 -136.046 25 hurdat_epa main 1966 1914 O_________P___ hurdat_epa EP081982 20.6000 -136.100 TD 25 -1 20.5444 -135.885 1 27 9 279
1982210N11245 1982 53 EP MM HECTOR 1982-08-02 21:00:00 TS 20.6412 -136.481 main 1914 1862 P_________P___ EP081982 20.6492 -136.513 TD 25 -1 20.6170 -136.386 1 26 9 277
1982210N11245 1982 53 EP MM HECTOR 1982-08-03 00:00:00 TS 20.7000 -137.000 25 hurdat_epa main 1862 1789 O_________O___ hurdat_epa EP081982 20.7000 -137.000 TD 25 -1 20.7000 -137.000 1 25 12 277
1982210N11245 1982 53 EP MM HECTOR 1982-08-03 03:00:00 TS 20.7909 -137.733 main 1789 1696 P_________P___ EP081982 20.7889 -137.725 TD 25 -1 20.7971 -137.758 1 25 15 278
1982210N11245 1982 53 EP MM HECTOR 1982-08-03 06:00:00 TS 20.9000 -138.600 25 hurdat_epa main 1696 O_________O___ hurdat_epa EP081982 20.9000 -138.600 TD 25 -1 20.9000 -138.600 1 25 16 278

About IBTrACS Database

This database is a web-friendly format of International Best Track Archive for Climate Stewardship (IBTrACS), a global best track data archive curated by NOAA dating back to 1842.

Updated: 2021-12-03